For water level readings from Victoria harbour, visit our Tides page.

DISCLAIMER: Although GVHA takes care to produce accurate readings from Ogden Point, the weather information on this site is raw data fed directly from sensors. It does not go through the same quality control processes used by professional weather services, and should not be relied on as a sole source of weather information for Victoria harbour.

In-depth weather values from Victoria Harbour can be found on the Environment Canada website.

Location: Ogden Point Breakwater

Current time: Jan 22, 2020 3:35 PM GMT | Jan 22, 2020 7:35 AM

Last Hour Last 3 Hours Last 6 Hours Last 12 Hours
Time Peak Wind Speed Avg Speed Avg Direction Avg Air Temp Avg Dew Point Avg Humidity
Jan 22, 2020 07:30 AM 10.1 knots 6.6 knots 64° True 6.9° C / 43.8° F 5.4° C / 40.8° F 90.2%
Jan 22, 2020 07:20 AM 8.9 knots 6.7 knots 60° True 7° C / 44° F 5.5° C / 41° F 90%
Jan 22, 2020 07:10 AM 9.2 knots 7.4 knots 63° True 7° C / 44° F 5.4° C / 40.8° F 89.5%
Jan 22, 2020 07:00 AM 7.3 knots 5.8 knots 59° True 7.1° C / 44.2° F 5.4° C / 40.8° F 89%
Jan 22, 2020 06:50 AM 8.3 knots 6.1 knots 69° True 7.3° C / 44.6° F 5.3° C / 40.6° F 87.1%
Jan 22, 2020 06:40 AM 8.1 knots 5.5 knots 80° True 7.4° C / 44.8° F 5.1° C / 40.2° F 85.4%
Jan 22, 2020 06:30 AM 7.6 knots 6.4 knots 113° True 7.4° C / 44.8° F 5° C / 40° F 84.6%
Jan 22, 2020 06:20 AM 7.2 knots 5.7 knots 131° True 7.4° C / 44.8° F 5° C / 40° F 84.7%
Jan 22, 2020 06:10 AM 7.4 knots 6 knots 138° True 7.3° C / 44.6° F 5° C / 40° F 85%
Jan 22, 2020 06:00 AM 8.2 knots 6.6 knots 139° True 7.3° C / 44.6° F 5.2° C / 40.4° F 86.3%
Jan 22, 2020 05:50 AM 10.5 knots 7.7 knots 157° True 7.5° C / 45° F 5.1° C / 40.2° F 85%
Jan 22, 2020 05:40 AM 8.6 knots 7.1 knots 174° True 7.4° C / 44.8° F 5° C / 40° F 84.7%
Jan 22, 2020 05:30 AM 11.3 knots 9.2 knots 185° True 7.4° C / 44.8° F 5° C / 40° F 84.8%
Jan 22, 2020 05:20 AM 13.6 knots 12.2 knots 172° True 7.4° C / 44.8° F 5.2° C / 40.4° F 85.4%
Jan 22, 2020 05:10 AM 14 knots 11.6 knots 168° True 7.5° C / 45° F 4.9° C / 39.8° F 83.5%
Jan 22, 2020 05:00 AM 14.9 knots 10 knots 168° True 7.5° C / 45° F 4.9° C / 39.8° F 83.7%
Jan 22, 2020 04:50 AM 10.8 knots 7.9 knots 160° True 7.6° C / 45.2° F 4.9° C / 39.8° F 83.2%
Jan 22, 2020 04:40 AM 10.4 knots 7.4 knots 203° True 7.7° C / 45.4° F 4.6° C / 39.2° F 81.2%
Jan 22, 2020 04:30 AM 13.7 knots 10.7 knots 240° True 7.7° C / 45.4° F 4.6° C / 39.2° F 80.6%
Jan 22, 2020 04:20 AM 16.8 knots 13 knots 246° True 7.7° C / 45.4° F 4.5° C / 39° F 80.5%
Jan 22, 2020 04:10 AM 17.5 knots 13.6 knots 237° True 7.7° C / 45.4° F 4.6° C / 39.2° F 80.8%
Jan 22, 2020 04:00 AM 20.7 knots 15.6 knots 236° True 7.8° C / 45.6° F 4.6° C / 39.2° F 80%
Jan 22, 2020 03:50 AM 18.7 knots 15.5 knots 240° True 7.8° C / 45.6° F 4.6° C / 39.2° F 80%
Jan 22, 2020 03:40 AM 19.3 knots 15.8 knots 238° True 7.8° C / 45.6° F 4.5° C / 39° F 79.6%
Jan 22, 2020 03:30 AM 18.6 knots 14.1 knots 233° True 7.7° C / 45.4° F 4.7° C / 39.4° F 80.9%
Jan 22, 2020 03:20 AM 18 knots 13.7 knots 221° True 7.7° C / 45.4° F 4.6° C / 39.2° F 80.4%
Jan 22, 2020 03:10 AM 22.7 knots 17.6 knots 224° True 7.7° C / 45.4° F 4.6° C / 39.2° F 80.9%
Jan 22, 2020 03:00 AM 23.4 knots 18.6 knots 231° True 7.7° C / 45.4° F 4.9° C / 39.8° F 82%
Jan 22, 2020 02:30 AM 24.8 knots 20.7 knots 221° True 8° C / 46° F 5° C / 40° F 81.4%
Jan 22, 2020 02:20 AM 21.9 knots 16.7 knots 226° True 7.9° C / 45.8° F 5.4° C / 40.8° F 84.1%
Jan 22, 2020 02:10 AM 21.3 knots 17.9 knots 223° True 7.8° C / 45.6° F 5.4° C / 40.8° F 85%
Jan 22, 2020 02:00 AM 24 knots 18.8 knots 223° True 7.8° C / 45.6° F 5.4° C / 40.8° F 84.5%
Jan 22, 2020 01:50 AM 21.1 knots 17.5 knots 210° True 7.6° C / 45.2° F 5.6° C / 41.2° F 87%
Jan 22, 2020 01:30 AM 21.1 knots 14.3 knots 191° True 7.4° C / 44.8° F 5.7° C / 41.4° F 89%
Jan 22, 2020 01:20 AM 15 knots 12.7 knots 184° True 7.3° C / 44.6° F 5.8° C / 41.6° F 89.7%
Jan 22, 2020 01:10 AM 19 knots 14.1 knots 182° True 7.3° C / 44.6° F 5.7° C / 41.4° F 89.4%
Jan 22, 2020 01:00 AM 18.5 knots 14.9 knots 182° True 7.3° C / 44.6° F 5.6° C / 41.2° F 88.6%
Jan 22, 2020 12:50 AM 18.5 knots 11.8 knots 170° True 7° C / 44° F 5.5° C / 41° F 90%
Jan 22, 2020 12:40 AM 15.4 knots 8.4 knots 149° True 6.7° C / 43.4° F 5.4° C / 40.8° F 91.7%
Jan 22, 2020 12:30 AM 8.7 knots 6.9 knots 142° True 6.6° C / 43.2° F 5.2° C / 40.4° F 91%
Jan 22, 2020 12:20 AM 8.4 knots 6.5 knots 151° True 6.7° C / 43.4° F 5.2° C / 40.4° F 90.4%
Jan 22, 2020 12:10 AM 10.1 knots 6.6 knots 129° True 6.6° C / 43.2° F 5° C / 40° F 89.2%
Jan 22, 2020 12:00 AM 12.5 knots 10.5 knots 118° True 6.6° C / 43.2° F 5° C / 40° F 90%
Jan 21, 2020 11:50 PM 13.1 knots 11.3 knots 111° True 6.7° C / 43.4° F 5.2° C / 40.4° F 90.3%
Jan 21, 2020 11:40 PM 13.7 knots 11.4 knots 104° True 6.8° C / 43.6° F 5.3° C / 40.6° F 89.8%
Jan 21, 2020 11:30 PM 14.3 knots 11.7 knots 100° True 6.9° C / 43.8° F 5.5° C / 41° F 90.4%
Jan 21, 2020 11:20 PM 12.6 knots 10.1 knots 94° True 6.9° C / 43.8° F 5.5° C / 41° F 90.3%
Jan 21, 2020 11:10 PM 10.4 knots 7.9 knots 92° True 6.8° C / 43.6° F 5.5° C / 41° F 90.9%
Jan 21, 2020 11:00 PM 12.4 knots 10.3 knots 98° True 6.7° C / 43.4° F 5.4° C / 40.8° F 91.2%
Jan 21, 2020 10:50 PM 12.4 knots 10.9 knots 107° True 6.8° C / 43.6° F 5.6° C / 41.2° F 92.1%
Jan 21, 2020 10:40 PM 13.3 knots 11.5 knots 113° True 6.7° C / 43.4° F 5.4° C / 40.8° F 91.8%
Jan 21, 2020 10:30 PM 13.9 knots 12.2 knots 114° True 6.5° C / 43° F 5.1° C / 40.2° F 90.7%
Jan 21, 2020 10:20 PM 13.4 knots 10.9 knots 115° True 6.5° C / 43° F 5.2° C / 40.4° F 91.7%
Jan 21, 2020 10:10 PM 13 knots 11.5 knots 110° True 6.7° C / 43.4° F 5.5° C / 41° F 92.1%
Jan 21, 2020 10:00 PM 12.2 knots 9.7 knots 109° True 6.7° C / 43.4° F 5.5° C / 41° F 92.1%
Jan 21, 2020 09:50 PM 9.4 knots 8.2 knots 113° True 6.7° C / 43.4° F 5.4° C / 40.8° F 91.7%
Jan 21, 2020 09:40 PM 9.8 knots 7.9 knots 116° True 6.7° C / 43.4° F 5.4° C / 40.8° F 91.5%
Jan 21, 2020 09:30 PM 12.9 knots 10.4 knots 112° True 6.7° C / 43.4° F 5.4° C / 40.8° F 91.7%
Jan 21, 2020 09:20 PM 15.3 knots 12.5 knots 113° True 6.7° C / 43.4° F 5.5° C / 41° F 91.9%
Jan 21, 2020 09:10 PM 14 knots 12 knots 118° True 6.7° C / 43.4° F 5.5° C / 41° F 91.8%
Jan 21, 2020 09:00 PM 13.5 knots 11 knots 125° True 6.9° C / 43.8° F 5.6° C / 41.2° F 91.7%
Jan 21, 2020 08:50 PM 13.2 knots 9.2 knots 131° True 6.9° C / 43.8° F 5.4° C / 40.8° F 90.5%
Jan 21, 2020 08:40 PM 18 knots 10.1 knots 130° True 6.7° C / 43.4° F 5.3° C / 40.6° F 90.7%
Jan 21, 2020 08:30 PM 14 knots 11.4 knots 129° True 6.6° C / 43.2° F 5.4° C / 40.8° F 91.8%
Jan 21, 2020 08:20 PM 16.6 knots 13.7 knots 135° True 6.7° C / 43.4° F 5.4° C / 40.8° F 91%
Jan 21, 2020 08:10 PM 15.9 knots 13.7 knots 140° True 6.7° C / 43.4° F 5.2° C / 40.4° F 90.6%
Jan 21, 2020 08:00 PM 19.2 knots 15.1 knots 143° True 6.9° C / 43.8° F 5.2° C / 40.4° F 89.3%
Jan 21, 2020 07:50 PM 18.2 knots 15.3 knots 143° True 7° C / 44° F 5.2° C / 40.4° F 88.1%
Jan 21, 2020 07:40 PM 22.4 knots 18.5 knots 150° True 7.3° C / 44.6° F 5.1° C / 40.2° F 86.2%